Dobrodošli na spletni strani vremenske postaje Senovo. Vse informacije so informativnega značaja, saj vremenska postaja ni del državne mreže meteoroloških postaj. AKTUALNIH OBVESTIL NI.


Sneg/Led Od: 21-02-2018 00:00 Do: 23-02-2018 23:59 Opozorilo za: Sneg/Led Stopnja: Rumena info button
Veter Od: 21-02-2018 00:00 Do: 22-02-2018 23:59 Opozorilo za: Veter Stopnja: Rumena info button

Pogled proti Armezu več informacij Pogled proti Armezu


Lisca več informacij Lisca


Radar strel več informacij blitzortung!


opozorilo za sneg/led več informacij rain snow radar


Obiščite še:

Template documentation
and downloads

And another site



Weather Underground, zgodovina - Tekstovno

Dnevni povzetek za Januar 13, 2018 Enote:  Metrično    Angleško   Obe
« Predhodni Dan
Naslednji Dan »
Dnevni Tedenski Mesečni Letni Po meri
  Višja: Nižja: Povprečje:
Temperatura: -17.8 °C -16.3 °C -15.7 °C
Točka rosišča: -17.8 °C -17.3 °C -16.7 °C
Vlažnost: Humidity % 86 % 87 %
Hitrost vetra: 0 km/h 4.3 km/h 10.5 km/h
Sunki vetra: 0 km/h - -
Veter:- - ENE
Zračni tlak: 0 hPa 34601.5 hPa -
Padavine: 0 mm    
Historical Graphs
 
 
Tabelarni podarki za Januar 13, 2018
Čas Temperatura Točka rosišča Zračni tlak Veter Hitrost vetra Sunki vetra Vlažnost Intenziteta padavin (urna)
-17.8 °C -17.8 °C 0 hPa Calm     Humidity % 0 mm
00:03 -15.1 °C -16.3 °C 34635.4 hPa ENE 10.1 km/h 16.3 km/h 86 % 0 mm
00:09 -15.1 °C -16.3 °C 34635.4 hPa East 9.3 km/h 20.9 km/h 86 % 0 mm
00:20 -15.2 °C -16.3 °C 34635.4 hPa East 11.1 km/h 22.5 km/h 86 % 0 mm
00:31 -15.1 °C -16.3 °C 34601.5 hPa NE 15 km/h 34.1 km/h 86 % 0 mm
00:36 -15.1 °C -16.3 °C 34601.5 hPa NE 17.9 km/h 34.1 km/h 86 % 0 mm
00:41 -15.1 °C -16.3 °C 34601.5 hPa ENE 15.3 km/h 34.1 km/h 86 % 0 mm
00:50 -15.2 °C -16.3 °C 34601.5 hPa East 9.3 km/h 19.2 km/h 86 % 0 mm
00:57 -15.2 °C -16.3 °C 34601.5 hPa East 9 km/h 16.3 km/h 86 % 0 mm
01:02 -15.2 °C -16.3 °C 34601.5 hPa ENE 8 km/h 16.3 km/h 86 % 0 mm
01:29 -15.2 °C -16.4 °C 34635.4 hPa NNE 10.1 km/h 17.4 km/h 86 % 0 mm
01:49 -15.2 °C -16.4 °C 34635.4 hPa NE 8 km/h 16.3 km/h 86 % 0 mm
01:56 -15.2 °C -16.4 °C 34669.3 hPa ENE 9.3 km/h 18.7 km/h 86 % 0 mm
02:03 -15.2 °C -16.4 °C 34669.3 hPa ESE 4.3 km/h 12.7 km/h 86 % 0 mm
02:09 -15.2 °C -16.4 °C 34669.3 hPa East 4.3 km/h 16.3 km/h 86 % 0 mm
02:28 -15.2 °C -16.3 °C 34635.4 hPa ENE 8.9 km/h 22 km/h 87 % 0 mm
02:39 -15.2 °C -16.3 °C 34635.4 hPa ENE 9 km/h 25.4 km/h 87 % 0 mm
02:46 -15.2 °C -16.3 °C 34635.4 hPa ENE 9.7 km/h 20.9 km/h 87 % 0 mm
02:54 -15.2 °C -16.3 °C 34635.4 hPa East 6.3 km/h 12.7 km/h 87 % 0 mm
03:07 -15.2 °C -16.3 °C 34601.5 hPa East 8.5 km/h 15.6 km/h 87 % 0 mm
03:12 -15.2 °C -16.3 °C 34635.4 hPa East 7.6 km/h 11.1 km/h 87 % 0 mm
03:19 -15.2 °C -16.3 °C 34635.4 hPa East 7.7 km/h 11.1 km/h 87 % 0 mm
03:25 -15.2 °C -16.3 °C 34635.4 hPa East 6.9 km/h 14 km/h 87 % 0 mm
03:30 -15.2 °C -16.3 °C 34635.4 hPa East 6.8 km/h 14 km/h 87 % 0 mm
03:37 -15.2 °C -16.3 °C 34635.4 hPa ENE 6.3 km/h 10.3 km/h 87 % 0 mm
03:54 -15.2 °C -16.3 °C 34669.3 hPa ENE 10.1 km/h 19.6 km/h 87 % 0 mm
03:59 -15.2 °C -16.3 °C 34635.4 hPa East 10.9 km/h 19.6 km/h 87 % 0 mm
04:05 -15.3 °C -16.4 °C 34635.4 hPa ENE 10.1 km/h 19.2 km/h 87 % 0 mm
04:12 -15.3 °C -16.4 °C 34635.4 hPa ENE 10.3 km/h 15 km/h 87 % 0 mm
04:21 -15.3 °C -16.4 °C 34635.4 hPa ENE 11.4 km/h 24.3 km/h 87 % 0 mm
04:31 -15.3 °C -16.4 °C 34635.4 hPa East 7.6 km/h 16.9 km/h 87 % 0 mm
04:36 -15.3 °C -16.4 °C 34635.4 hPa ENE 8.5 km/h 16.9 km/h 87 % 0 mm
04:42 -15.3 °C -16.4 °C 34635.4 hPa NE 9.7 km/h 16.9 km/h 87 % 0 mm
04:54 -15.3 °C -16.4 °C 34635.4 hPa NE 11.1 km/h 20.9 km/h 87 % 0 mm
05:00 -15.3 °C -16.4 °C 34635.4 hPa NE 8.9 km/h 14 km/h 87 % 0 mm
05:20 -15.4 °C -16.5 °C 34635.4 hPa East 8.9 km/h 20.3 km/h 87 % 0 mm
05:33 -15.4 °C -16.5 °C 34635.4 hPa ENE 7.7 km/h 14.5 km/h 87 % 0 mm
05:44 -15.4 °C -16.6 °C 34635.4 hPa East 10.6 km/h 16.9 km/h 87 % 0 mm
05:50 -15.4 °C -16.6 °C 34635.4 hPa East 12.2 km/h 20.9 km/h 87 % 0 mm
05:59 -15.4 °C -16.6 °C 34635.4 hPa ENE 8.2 km/h 14.5 km/h 87 % 0 mm
06:15 -15.5 °C -16.6 °C 34635.4 hPa ENE 8 km/h 16.3 km/h 87 % 0 mm
06:21 -15.5 °C -16.6 °C 34635.4 hPa East 9.3 km/h 18.7 km/h 87 % 0 mm
06:36 -15.6 °C -16.6 °C 34635.4 hPa East 12.2 km/h 19.2 km/h 87 % 0 mm
06:44 -15.6 °C -16.6 °C 34635.4 hPa East 11.6 km/h 22 km/h 87 % 0 mm
06:54 -15.6 °C -16.6 °C 34635.4 hPa East 11.6 km/h 20.9 km/h 87 % 0 mm
07:01 -15.6 °C -16.6 °C 34635.4 hPa East 14.2 km/h 22 km/h 87 % 0 mm
07:09 -15.6 °C -16.6 °C 34635.4 hPa East 12.7 km/h 27.2 km/h 88 % 0 mm
07:16 -15.6 °C -16.6 °C 34635.4 hPa East 12.2 km/h 27.2 km/h 88 % 0 mm
07:22 -15.6 °C -16.6 °C 34635.4 hPa East 11.6 km/h 16.9 km/h 88 % 0 mm
07:28 -15.6 °C -16.6 °C 34601.5 hPa East 13.5 km/h 22 km/h 88 % 0 mm
07:34 -15.6 °C -16.6 °C 34601.5 hPa East 14.8 km/h 24.8 km/h 88 % 0 mm
07:41 -15.6 °C -16.6 °C 34601.5 hPa East 13.7 km/h 26.7 km/h 88 % 0 mm
07:55 -15.6 °C -16.6 °C 34601.5 hPa East 11.1 km/h 26.2 km/h 88 % 0 mm
08:02 -15.6 °C -16.6 °C 34635.4 hPa East 15.3 km/h 26.2 km/h 88 % 0 mm
08:08 -15.6 °C -16.5 °C 34635.4 hPa East 14.5 km/h 22 km/h 89 % 0 mm
08:24 -15.7 °C -16.6 °C 34635.4 hPa ENE 14 km/h 27.2 km/h 89 % 0 mm
08:30 -15.7 °C -16.6 °C 34635.4 hPa East 12.9 km/h 19.6 km/h 89 % 0 mm
08:36 -15.7 °C -16.6 °C 34635.4 hPa East 16.1 km/h 33.2 km/h 89 % 0 mm
08:41 -15.7 °C -16.6 °C 34635.4 hPa ENE 15 km/h 22 km/h 89 % 0 mm
08:51 -15.7 °C -16.6 °C 34635.4 hPa East 16.3 km/h 39.4 km/h 89 % 0 mm
09:01 -15.7 °C -16.6 °C 34635.4 hPa East 13.5 km/h 30.7 km/h 89 % 0 mm
09:09 -15.7 °C -16.6 °C 34635.4 hPa ENE 14.5 km/h 25.4 km/h 89 % 0 mm
09:29 -15.6 °C -16.5 °C 34635.4 hPa ENE 13.2 km/h 26.2 km/h 89 % 0 mm
09:36 -15.6 °C -16.5 °C 34635.4 hPa NE 11.4 km/h 20.9 km/h 89 % 0 mm
09:48 -15.6 °C -16.5 °C 34635.4 hPa NE 9 km/h 19.6 km/h 89 % 0 mm
10:01 -15.6 °C -16.5 °C 34635.4 hPa NE 8.5 km/h 22.5 km/h 89 % 0 mm
10:10 -15.5 °C -16.4 °C 34635.4 hPa NE 9 km/h 22.5 km/h 89 % 0 mm
10:18 -15.5 °C -16.5 °C 34635.4 hPa NE 8.5 km/h 16.3 km/h 88 % 0 mm
10:47 -15.4 °C -16.4 °C 34635.4 hPa ENE 13.7 km/h 20.3 km/h 88 % 0 mm
10:57 -15.4 °C -16.4 °C 34601.5 hPa NNE 11.9 km/h 28.5 km/h 88 % 0 mm
11:06 -15.3 °C -16.3 °C 34601.5 hPa East 12.7 km/h 32.3 km/h 88 % 0 mm
11:18 -15.3 °C -16.3 °C 34601.5 hPa ESE 14.2 km/h 31.4 km/h 88 % 0 mm
11:28 -15.2 °C -16.2 °C 34635.4 hPa East 13.2 km/h 26.2 km/h 88 % 0 mm
11:36 -15.3 °C -16.3 °C 34635.4 hPa NE 8.2 km/h 14.5 km/h 88 % 0 mm
11:50 -15.3 °C -16.4 °C 34601.5 hPa ENE 7.2 km/h 18.7 km/h 87 % 0 mm
11:55 -15.3 °C -16.4 °C 34601.5 hPa ENE 9 km/h 22 km/h 87 % 0 mm
12:23 -15.4 °C -16.6 °C 34635.4 hPa ENE 11.4 km/h 22.5 km/h 86 % 0 mm
12:33 -15.4 °C -16.6 °C 34635.4 hPa East 9.7 km/h 15.6 km/h 86 % 0 mm
12:43 -15.5 °C -16.7 °C 34635.4 hPa ENE 11.6 km/h 22 km/h 86 % 0 mm
12:52 -15.5 °C -16.7 °C 34635.4 hPa ENE 11.1 km/h 19.2 km/h 86 % 0 mm
12:57 -15.5 °C -16.7 °C 34635.4 hPa East 11.1 km/h 23 km/h 86 % 0 mm
13:04 -15.5 °C -16.7 °C 34635.4 hPa East 12.2 km/h 22 km/h 86 % 0 mm
13:21 -15.5 °C -16.7 °C 34635.4 hPa East 10.9 km/h 20.3 km/h 86 % 0 mm
13:26 -15.6 °C -16.7 °C 34635.4 hPa ENE 12.9 km/h 28.5 km/h 86 % 0 mm
13:38 -15.6 °C -16.7 °C 34635.4 hPa East 12.2 km/h 24.8 km/h 86 % 0 mm
13:47 -15.6 °C -16.7 °C 34635.4 hPa ENE 11.9 km/h 22.5 km/h 86 % 0 mm
13:58 -15.6 °C -16.7 °C 34635.4 hPa East 11.4 km/h 18.7 km/h 86 % 0 mm
14:06 -15.6 °C -16.7 °C 34635.4 hPa ENE 10.9 km/h 16.3 km/h 86 % 0 mm
14:20 -15.6 °C -16.7 °C 34635.4 hPa East 9.8 km/h 18.7 km/h 86 % 0 mm
14:37 -15.6 °C -16.7 °C 34635.4 hPa ENE 8.9 km/h 19.6 km/h 87 % 0 mm
14:48 -15.6 °C -16.7 °C 34635.4 hPa ENE 10.1 km/h 18.7 km/h 87 % 0 mm
14:56 -15.6 °C -16.7 °C 34635.4 hPa ENE 11.4 km/h 22 km/h 87 % 0 mm
15:06 -15.6 °C -16.7 °C 34635.4 hPa NE 8.2 km/h 22 km/h 87 % 0 mm
15:11 -15.7 °C -16.8 °C 34635.4 hPa ENE 10.3 km/h 20.9 km/h 87 % 0 mm
15:24 -15.7 °C -16.8 °C 34635.4 hPa ENE 10.6 km/h 22 km/h 87 % 0 mm
15:49 -15.7 °C -16.8 °C 34635.4 hPa NE 10.9 km/h 24.3 km/h 87 % 0 mm
15:56 -15.7 °C -16.8 °C 34635.4 hPa NE 10.3 km/h 16.3 km/h 87 % 0 mm
16:05 -15.8 °C -16.9 °C 34635.4 hPa NE 11.6 km/h 22.5 km/h 87 % 0 mm
16:10 -15.8 °C -16.9 °C 34635.4 hPa NE 7.6 km/h 17.9 km/h 87 % 0 mm
16:19 -15.8 °C -16.9 °C 34635.4 hPa NE 6.8 km/h 15 km/h 87 % 0 mm
16:30 -15.8 °C -16.8 °C 34635.4 hPa ENE 8 km/h 15 km/h 88 % 0 mm
16:36 -15.8 °C -16.8 °C 34635.4 hPa NE 8.2 km/h 15 km/h 88 % 0 mm
16:54 -15.8 °C -16.8 °C 34635.4 hPa ENE 7.7 km/h 15.6 km/h 88 % 0 mm
17:02 -15.8 °C -16.8 °C 34635.4 hPa East 9.8 km/h 22.5 km/h 88 % 0 mm
17:10 -15.8 °C -16.8 °C 34635.4 hPa East 6.3 km/h 15.6 km/h 88 % 0 mm
17:23 -15.8 °C -16.8 °C 34635.4 hPa East 5 km/h 16.9 km/h 88 % 0 mm
17:30 -15.8 °C -16.8 °C 34635.4 hPa East 9 km/h 16.9 km/h 88 % 0 mm
17:54 -15.8 °C -16.8 °C 34635.4 hPa ENE 7.7 km/h 14.5 km/h 88 % 0 mm
18:00 -15.8 °C -16.9 °C 34669.3 hPa East 8.2 km/h 16.3 km/h 87 % 0 mm
18:10 -15.8 °C -16.9 °C 34669.3 hPa East 11.1 km/h 29 km/h 87 % 0 mm
18:19 -15.8 °C -16.9 °C 34635.4 hPa East 12.2 km/h 26.2 km/h 87 % 0 mm
18:24 -15.9 °C -17 °C 34635.4 hPa East 12.2 km/h 26.2 km/h 87 % 0 mm
18:33 -15.9 °C -17 °C 34601.5 hPa East 10.9 km/h 18.7 km/h 87 % 0 mm
18:42 -15.9 °C -17 °C 34601.5 hPa ENE 7.7 km/h 15.6 km/h 87 % 0 mm
19:00 -15.9 °C -17.1 °C 34635.4 hPa East 8 km/h 15.6 km/h 87 % 0 mm
19:19 -15.9 °C -17.1 °C 34635.4 hPa ENE 14 km/h 26.2 km/h 87 % 0 mm
19:31 -15.9 °C -17.1 °C 34635.4 hPa East 10.1 km/h 19.2 km/h 87 % 0 mm
19:37 -15.9 °C -17.1 °C 34635.4 hPa East 9.3 km/h 19.2 km/h 87 % 0 mm
19:43 -16 °C -17.1 °C 34635.4 hPa ENE 12.9 km/h 22 km/h 87 % 0 mm
19:49 -16 °C -17.1 °C 34635.4 hPa ENE 14 km/h 26.2 km/h 87 % 0 mm
20:01 -16.1 °C -17.1 °C 34601.5 hPa East 10.3 km/h 19.2 km/h 87 % 0 mm
20:07 -16.1 °C -17.1 °C 34601.5 hPa ENE 10.3 km/h 16.3 km/h 87 % 0 mm
20:17 -16.1 °C -17.1 °C 34635.4 hPa East 10.3 km/h 19.6 km/h 87 % 0 mm
20:27 -16.1 °C -17.1 °C 34635.4 hPa East 12.7 km/h 23 km/h 87 % 0 mm
20:45 -16.1 °C -17.2 °C 34635.4 hPa ENE 12.4 km/h 22 km/h 87 % 0 mm
20:52 -16.1 °C -17.2 °C 34635.4 hPa ENE 11.6 km/h 22.5 km/h 87 % 0 mm
20:59 -16.1 °C -17.2 °C 34635.4 hPa ENE 13.7 km/h 22 km/h 87 % 0 mm
21:05 -16.1 °C -17.2 °C 34635.4 hPa East 13.7 km/h 22 km/h 87 % 0 mm
21:22 -16.1 °C -17.2 °C 34635.4 hPa ENE 14.2 km/h 20.9 km/h 87 % 0 mm
21:32 -16.2 °C -17.3 °C 34635.4 hPa ENE 15 km/h 23.8 km/h 87 % 0 mm
21:39 -16.2 °C -17.3 °C 34635.4 hPa ENE 13.2 km/h 23.8 km/h 87 % 0 mm
21:47 -16.2 °C -17.3 °C 34601.5 hPa ENE 12.7 km/h 22 km/h 87 % 0 mm
21:52 -16.2 °C -17.3 °C 34601.5 hPa ENE 12.7 km/h 22 km/h 87 % 0 mm
21:59 -16.2 °C -17.3 °C 34635.4 hPa ENE 10.6 km/h 19.2 km/h 87 % 0 mm
22:06 -16.2 °C -17.3 °C 34635.4 hPa ENE 10.6 km/h 19.2 km/h 87 % 0 mm
22:15 -16.2 °C -17.3 °C 34601.5 hPa ENE 11.6 km/h 20.3 km/h 87 % 0 mm
22:28 -16.3 °C -17.3 °C 34601.5 hPa ENE 8.5 km/h 16.3 km/h 87 % 0 mm
22:40 -16.3 °C -17.3 °C 34601.5 hPa NE 7.2 km/h 23.8 km/h 87 % 0 mm
22:48 -16.3 °C -17.3 °C 34601.5 hPa East 8.9 km/h 17.4 km/h 88 % 0 mm
22:55 -16.3 °C -17.3 °C 34601.5 hPa East 9.8 km/h 18.7 km/h 88 % 0 mm
23:13 -16.3 °C -17.3 °C 34601.5 hPa ENE 6.9 km/h 11.1 km/h 88 % 0 mm
23:24 -16.3 °C -17.3 °C 34601.5 hPa ENE 6.3 km/h 11.1 km/h 88 % 0 mm
23:29 -16.3 °C -17.3 °C 34601.5 hPa ENE 5.1 km/h 12.7 km/h 88 % 0 mm
23:36 -16.3 °C -17.3 °C 34601.5 hPa NE 5.6 km/h 14.5 km/h 88 % 0 mm
23:44 -16.3 °C -17.3 °C 34669.3 hPa ENE 6.4 km/h 14.5 km/h 88 % 0 mm
Vremenska postaja Senovo
Podatki zbrani iz Weather Underground - 2.25 mb

Script developed by  Jim McMurry - jmcmurry@mwt.net Adapted for the template by  Wim van der Kuil - Leuven-Template.eu

Vremenski podatki so objavljeni na:

European Weather Network

WeatherCloud

Weather Underground

AWEKAS

HAMweather, WeatherForYou, PWS Weather

MapView

Geostik

Slovenia weather network

Oprema, ki se uporablja:

Vremenski program
Cumulus

Vremenski server
Asus

Cumulus

Asus